M I D A S
Marine Information and Data Acquisition System
Tripno 2190 of the Zeeleeuw from 2011-10-03 05:13:32 to 2011-10-03 15:36:37
Back to CruiseResearch ActivitiesStationsMapUnderway DataData graphs

EquipmentUnitsComment
TimeDGPSUTC
LatitudeDGPSDM.mWGS84
LongitudeDGPSDM.mWGS84
HeadingGyrodeg 
SOGDGPSknotsSpeed over ground
COGDGPSdegCourse over ground
DepthEcho soundermeters200 kHz
Missing or incorrect values are displayed as -999
Navigation data collected by the RV Zeeleeuw from 2011-10-03 05:03:12 to 2011-10-03 15:48:07
                                                                                    Next 1000 lines
Time Latitude Longitude Heading SOG COG Depth
2011-10-03 05:03:21 51°13.636 2°56.018 118.9 0.1 196 9.8
2011-10-03 05:03:26 51°13.636 2°56.018 117.7 0.1 200 9.9
2011-10-03 05:03:31 51°13.636 2°56.018 116.3 0.1 193 9.8
2011-10-03 05:03:36 51°13.636 2°56.018 114.9 0.1 186 9.8
2011-10-03 05:03:41 51°13.636 2°56.018 113.6 0.1 197 9.8
2011-10-03 05:03:46 51°13.636 2°56.018 112 0.1 225 -999
2011-10-03 05:03:50 51°13.636 2°56.018 110.4 0.1 268 9.8
2011-10-03 05:03:55 51°13.636 2°56.017 109.5 0.4 286 9.8
2011-10-03 05:04:01 51°13.636 2°56.014 108.6 1 287 9.8
2011-10-03 05:04:06 51°13.637 2°56.011 108.1 1.5 287 9.8
2011-10-03 05:04:10 51°13.638 2°56.008 107.8 1.8 289 10
2011-10-03 05:04:15 51°13.638 2°56.004 107.9 2.3 288 10
2011-10-03 05:04:21 51°13.64 2°55.997 108.9 2.6 290 -999
2011-10-03 05:04:26 51°13.641 2°55.991 110 3 292 -999
2011-10-03 05:04:32 51°13.644 2°55.983 111.1 3.3 293 -999
2011-10-03 05:04:38 51°13.646 2°55.975 111.9 3.5 293 -999
2011-10-03 05:04:44 51°13.648 2°55.966 112.1 3.8 293 -999
2011-10-03 05:04:50 51°13.651 2°55.956 112 4 294 -999
2011-10-03 05:04:55 51°13.653 2°55.947 111.7 4.2 293 -999
2011-10-03 05:04:59 51°13.655 2°55.94 111.4 4.3 293 -999
2011-10-03 05:05:05 51°13.658 2°55.93 111.2 4.4 292 -999
2011-10-03 05:05:10 51°13.66 2°55.921 111.2 4.5 293 -999
2011-10-03 05:05:15 51°13.662 2°55.911 111.4 4.4 292 -999
2011-10-03 05:05:19 51°13.665 2°55.904 111.8 4.4 293 -999
2011-10-03 05:05:24 51°13.667 2°55.896 112.1 4.4 293 -999
2011-10-03 05:05:30 51°13.67 2°55.885 112.8 4.3 294 -999
2011-10-03 05:05:35 51°13.672 2°55.876 113.7 4.4 294 -999
2011-10-03 05:05:39 51°13.674 2°55.869 114.8 4.3 295 -999
2011-10-03 05:05:44 51°13.677 2°55.86 115.7 4.4 296 -999
2011-10-03 05:05:49 51°13.68 2°55.852 117 4.5 298 -999
2011-10-03 05:05:55 51°13.683 2°55.841 118.9 4.6 299 -999
2011-10-03 05:05:59 51°13.686 2°55.834 120.6 4.6 301 -999
2011-10-03 05:06:04 51°13.689 2°55.825 122.5 4.7 302 -999
2011-10-03 05:06:09 51°13.693 2°55.816 123.8 4.9 304 -999
2011-10-03 05:06:14 51°13.697 2°55.807 125.8 4.9 305 -999
2011-10-03 05:06:19 51°13.701 2°55.798 127.5 5 306 -999
2011-10-03 05:06:24 51°13.705 2°55.79 128.8 5.1 309 -999
2011-10-03 05:06:29 51°13.71 2°55.781 130.7 5.1 310 -999
2011-10-03 05:06:34 51°13.714 2°55.772 132.8 5.1 311 -999
2011-10-03 05:06:39 51°13.719 2°55.764 134.2 5.1 312 -999
2011-10-03 05:06:44 51°13.724 2°55.756 135.3 5.2 314 -999
2011-10-03 05:06:49 51°13.73 2°55.748 136.8 5.3 315 -999
2011-10-03 05:06:54 51°13.735 2°55.74 138 5.3 316 -999
2011-10-03 05:06:59 51°13.741 2°55.732 139 5.3 318 -999
2011-10-03 05:07:04 51°13.746 2°55.724 140.4 5.3 319 -999
2011-10-03 05:07:09 51°13.752 2°55.717 141.5 5.4 320 -999
2011-10-03 05:07:14 51°13.758 2°55.709 142.6 5.4 322 -999
2011-10-03 05:07:19 51°13.764 2°55.702 143.9 5.4 323 -999
2011-10-03 05:07:24 51°13.77 2°55.695 145 5.4 323 -999
2011-10-03 05:07:29 51°13.776 2°55.688 146 5.4 325 -999
2011-10-03 05:07:34 51°13.782 2°55.682 146.9 5.4 326 -999
2011-10-03 05:07:39 51°13.789 2°55.675 147.8 5.4 327 -999
2011-10-03 05:07:44 51°13.795 2°55.669 148.4 5.4 329 -999
2011-10-03 05:07:49 51°13.802 2°55.663 149.7 5.5 329 -999
2011-10-03 05:07:55 51°13.81 2°55.656 150.9 5.5 331 -999
2011-10-03 05:08:00 51°13.816 2°55.65 152 5.5 332 -999
2011-10-03 05:08:04 51°13.822 2°55.646 153.1 5.5 332 -999
2011-10-03 05:08:09 51°13.829 2°55.64 154.1 5.5 334 -999
2011-10-03 05:08:15 51°13.837 2°55.634 155.4 5.5 335 -999
2011-10-03 05:08:20 51°13.844 2°55.629 157 5.5 337 -999
2011-10-03 05:08:24 51°13.85 2°55.626 158.5 5.5 338 -999
2011-10-03 05:08:29 51°13.857 2°55.621 159.8 5.5 339 -999
2011-10-03 05:08:34 51°13.864 2°55.617 161.2 5.5 341 -999
2011-10-03 05:08:40 51°13.873 2°55.613 163.1 5.5 343 -999
2011-10-03 05:08:44 51°13.878 2°55.61 165.3 5.2 344 -999
2011-10-03 05:08:49 51°13.885 2°55.608 167.3 5 346 -999
2011-10-03 05:08:54 51°13.891 2°55.606 170.8 4.8 349 -999
2011-10-03 05:08:59 51°13.898 2°55.604 173.6 4.6 351 -999
2011-10-03 05:09:04 51°13.904 2°55.603 176.6 4.5 354 -999
2011-10-03 05:09:09 51°13.91 2°55.603 179.3 4.3 357 -999
2011-10-03 05:09:14 51°13.915 2°55.602 182.6 4.2 -999 -999
2011-10-03 05:09:19 51°13.921 2°55.603 186.2 4 3 -999
2011-10-03 05:09:24 51°13.926 2°55.604 190.6 3.9 7 -999
2011-10-03 05:09:30 51°13.932 2°55.606 193.5 3.8 9 -999
2011-10-03 05:09:34 51°13.936 2°55.607 196.9 3.6 12 -999
2011-10-03 05:09:40 51°13.942 2°55.609 200.7 3.5 16 -999
2011-10-03 05:09:45 51°13.946 2°55.611 203.9 3.4 18 -999
2011-10-03 05:09:50 51°13.95 2°55.614 206.2 3.2 21 -999
2011-10-03 05:09:55 51°13.954 2°55.617 209.1 3.1 24 -999
2011-10-03 05:10:00 51°13.958 2°55.62 211.8 3 26 -999
2011-10-03 05:10:05 51°13.961 2°55.623 214.3 2.9 27 -999
2011-10-03 05:10:10 51°13.964 2°55.626 216.4 2.8 30 -999
2011-10-03 05:10:15 51°13.967 2°55.628 218.4 2.6 30 -999
2011-10-03 05:10:20 51°13.97 2°55.631 220.3 2.4 32 -999
2011-10-03 05:10:25 51°13.973 2°55.634 222.2 2.2 33 -999
2011-10-03 05:10:29 51°13.974 2°55.636 224 2.1 34 14.3
2011-10-03 05:10:34 51°13.976 2°55.638 225.7 1.7 36 14.1
2011-10-03 05:10:39 51°13.978 2°55.64 227.4 1.4 34 14.1
2011-10-03 05:10:45 51°13.98 2°55.641 229.6 1.1 29 -999
2011-10-03 05:10:49 51°13.98 2°55.641 231.6 0.8 12 14.1
2011-10-03 05:10:54 51°13.98 2°55.64 234 0.6 284 14.1
2011-10-03 05:10:59 51°13.981 2°55.637 238.2 1.1 271 14
2011-10-03 05:11:04 51°13.981 2°55.633 244.7 1.7 270 14
2011-10-03 05:11:09 51°13.981 2°55.628 252.6 2.3 273 14
2011-10-03 05:11:13 51°13.981 2°55.623 260.8 2.7 277 13.9
2011-10-03 05:11:18 51°13.982 2°55.617 269.2 3.1 284 13.9
2011-10-03 05:11:23 51°13.984 2°55.61 277.3 3.5 290 13.9
2011-10-03 05:11:29 51°13.987 2°55.6 285.6 3.9 298 13.7
2011-10-03 05:11:33 51°13.989 2°55.594 293.2 4.2 301 -999
2011-10-03 05:11:38 51°13.993 2°55.585 299.1 4.6 304 13.6
2011-10-03 05:11:43 51°13.997 2°55.577 303.6 4.9 307 13.8
2011-10-03 05:11:48 51°14.002 2°55.568 307.1 5.3 310 13.8
2011-10-03 05:11:53 51°14.007 2°55.558 310.1 5.7 313 13.8
2011-10-03 05:11:57 51°14.013 2°55.551 312.9 6.1 315 13.7
2011-10-03 05:12:02 51°14.02 2°55.541 316.5 6.6 321 13.7
2011-10-03 05:12:07 51°14.027 2°55.533 320.9 6.9 324 13.7
2011-10-03 05:12:12 51°14.036 2°55.524 324.2 7.2 325 13.7
2011-10-03 05:12:17 51°14.044 2°55.514 325.4 7.4 325 13.6
2011-10-03 05:12:21 51°14.051 2°55.507 326.1 7.7 327 13.6
2011-10-03 05:12:27 51°14.063 2°55.495 327.2 8 328 13.5
2011-10-03 05:12:32 51°14.072 2°55.486 327.5 8.2 328 13.6
2011-10-03 05:12:36 51°14.08 2°55.478 328.2 8.4 329 13.6
2011-10-03 05:12:41 51°14.091 2°55.468 329 8.5 330 13.6
2011-10-03 05:12:46 51°14.101 2°55.458 329 8.7 329 13.6
2011-10-03 05:12:51 51°14.111 2°55.449 329.1 8.8 330 13.6
2011-10-03 05:12:57 51°14.124 2°55.437 329.6 8.9 330 13.6
2011-10-03 05:13:01 51°14.133 2°55.429 329.6 9 330 13.6
2011-10-03 05:13:06 51°14.144 2°55.419 329.7 9.1 330 13.6
2011-10-03 05:13:12 51°14.156 2°55.407 329.7 9.1 329 13.6
2011-10-03 05:13:17 51°14.168 2°55.397 329.8 9.2 330 13.5
2011-10-03 05:13:21 51°14.176 2°55.388 329.7 9.2 329 13.5
2011-10-03 05:13:26 51°14.187 2°55.378 329.3 9.2 329 13.5
2011-10-03 05:13:31 51°14.198 2°55.367 329.5 9.2 329 13.5
2011-10-03 05:13:37 51°14.212 2°55.355 330 9.2 330 13.5
2011-10-03 05:13:41 51°14.22 2°55.346 329.6 9.3 329 13.5
2011-10-03 05:13:46 51°14.231 2°55.336 329.2 9.3 329 13.5
2011-10-03 05:13:51 51°14.242 2°55.325 329.6 9.3 329 13.5
2011-10-03 05:13:57 51°14.256 2°55.313 329.6 9.4 329 13.6
2011-10-03 05:14:01 51°14.265 2°55.304 329 9.4 328 13.5
2011-10-03 05:14:06 51°14.275 2°55.293 328.2 9.4 327 13.5
2011-10-03 05:14:11 51°14.287 2°55.282 327.9 9.4 328 13.2
2011-10-03 05:14:16 51°14.298 2°55.271 327.8 9.4 328 13.3
2011-10-03 05:14:21 51°14.309 2°55.259 327.7 9.4 328 13.5
2011-10-03 05:14:27 51°14.322 2°55.246 327.8 9.4 328 13.6
2011-10-03 05:14:32 51°14.333 2°55.235 328.4 9.4 328 13.4
2011-10-03 05:14:37 51°14.344 2°55.224 328.9 9.4 328 -999
2011-10-03 05:14:41 51°14.353 2°55.215 328.9 9.4 328 13.4
2011-10-03 05:14:47 51°14.366 2°55.203 328.9 9.4 329 13.4
2011-10-03 05:14:52 51°14.378 2°55.193 329.8 9.4 330 13.4
2011-10-03 05:14:57 51°14.389 2°55.182 330 9.4 329 13.2
2011-10-03 05:15:01 51°14.399 2°55.173 328.5 9.4 329 13.1
2011-10-03 05:15:05 51°14.408 2°55.165 327.9 9.4 328 -999
2011-10-03 05:15:12 51°14.423 2°55.15 327.9 9.4 329 13.4
2011-10-03 05:15:17 51°14.435 2°55.139 328 9.4 328 13.4
2011-10-03 05:15:21 51°14.444 2°55.13 327.7 9.4 328 13.3
2011-10-03 05:15:25 51°14.452 2°55.121 327.5 9.4 327 13.3
2011-10-03 05:15:32 51°14.468 2°55.106 327.6 9.4 328 13.7
2011-10-03 05:15:37 51°14.478 2°55.094 327.8 9.4 327 14.1
2011-10-03 05:15:41 51°14.487 2°55.085 327.9 9.4 328 13.8
2011-10-03 05:15:46 51°14.498 2°55.074 328 9.5 327 13.7
2011-10-03 05:15:50 51°14.507 2°55.065 328 9.6 328 14.1
2011-10-03 05:15:56 51°14.521 2°55.051 328.2 9.7 328 14.1
2011-10-03 05:16:01 51°14.532 2°55.039 327.4 9.8 328 14.2
2011-10-03 05:16:06 51°14.544 2°55.028 327.4 10 329 14.3
2011-10-03 05:16:11 51°14.556 2°55.017 327.9 10.1 330 14.3
2011-10-03 05:16:16 51°14.569 2°55.005 327.9 10.3 330 14.4
2011-10-03 05:16:21 51°14.582 2°54.994 327.7 10.4 331 14.5
2011-10-03 05:16:26 51°14.595 2°54.984 328.8 10.6 334 14.1
2011-10-03 05:16:31 51°14.608 2°54.973 329.2 10.7 334 14.1
2011-10-03 05:16:37 51°14.624 2°54.96 328.1 10.8 331 14
2011-10-03 05:16:41 51°14.634 2°54.95 325.6 10.9 331 14.1
2011-10-03 05:16:46 51°14.647 2°54.938 324.7 11 330 14.2
2011-10-03 05:16:51 51°14.661 2°54.926 323.7 11.1 330 14.1
2011-10-03 05:16:56 51°14.674 2°54.913 323.4 11.2 330 14
2011-10-03 05:17:01 51°14.688 2°54.9 322.7 11.2 328 13.9
2011-10-03 05:17:06 51°14.701 2°54.887 321.5 11.3 328 13.9
2011-10-03 05:17:11 51°14.714 2°54.874 321.6 11.3 329 13.9
2011-10-03 05:17:16 51°14.728 2°54.861 321.6 11.4 328 13.8
2011-10-03 05:17:21 51°14.741 2°54.847 321.2 11.4 328 13.8
2011-10-03 05:17:26 51°14.754 2°54.834 321.6 11.5 329 13.7
2011-10-03 05:17:31 51°14.768 2°54.82 321.5 11.5 327 13.6
2011-10-03 05:17:36 51°14.782 2°54.806 321 11.7 328 13.6
2011-10-03 05:17:41 51°14.795 2°54.792 321.6 11.8 328 13.3
2011-10-03 05:17:46 51°14.809 2°54.778 321.6 11.8 327 13.1
2011-10-03 05:17:51 51°14.823 2°54.764 320.3 11.9 326 13.1
2011-10-03 05:17:57 51°14.839 2°54.746 319.9 12 327 13.1
2011-10-03 05:18:01 51°14.851 2°54.735 320.5 12.1 327 13
2011-10-03 05:18:06 51°14.865 2°54.72 320.2 12.2 326 13
2011-10-03 05:18:11 51°14.879 2°54.704 319.8 12.3 326 13
2011-10-03 05:18:16 51°14.893 2°54.689 319.9 12.4 326 13
2011-10-03 05:18:21 51°14.907 2°54.674 320 12.4 326 12.9
2011-10-03 05:18:26 51°14.922 2°54.659 320.3 12.4 327 12.9
2011-10-03 05:18:31 51°14.936 2°54.644 321 12.5 327 13.1
2011-10-03 05:18:36 51°14.951 2°54.629 321.3 12.5 327 12.8
2011-10-03 05:18:41 51°14.966 2°54.614 320.9 12.5 327 12.6
2011-10-03 05:18:46 51°14.98 2°54.599 320.9 12.5 327 12.5
2011-10-03 05:18:51 51°14.995 2°54.584 321.4 12.5 327 12.3
2011-10-03 05:18:57 51°15.012 2°54.566 320.8 12.5 327 12.3
2011-10-03 05:19:01 51°15.024 2°54.554 320.7 12.5 327 12.2
2011-10-03 05:19:06 51°15.038 2°54.537 320.1 12.5 324 12.2
2011-10-03 05:19:11 51°15.052 2°54.521 318.8 12.4 323 12.1
2011-10-03 05:19:16 51°15.065 2°54.503 317.4 12.4 321 12.1
2011-10-03 05:19:21 51°15.078 2°54.486 315.8 12.5 321 12
2011-10-03 05:19:26 51°15.092 2°54.468 315.3 12.4 320 11.9
2011-10-03 05:19:31 51°15.105 2°54.45 314.9 12.4 319 12
2011-10-03 05:19:36 51°15.117 2°54.432 314.3 12.4 318 11.9
2011-10-03 05:19:41 51°15.13 2°54.414 313.9 12.4 319 11.9
2011-10-03 05:19:46 51°15.143 2°54.396 313.8 12.4 319 11.9
2011-10-03 05:19:51 51°15.156 2°54.378 314.1 12.4 319 12
2011-10-03 05:19:56 51°15.17 2°54.36 314.5 12.4 320 12
2011-10-03 05:20:01 51°15.183 2°54.342 314.9 12.4 320 12
2011-10-03 05:20:06 51°15.196 2°54.325 315.3 12.5 320 12.2
2011-10-03 05:20:11 51°15.21 2°54.308 315.8 12.5 322 12.2
2011-10-03 05:20:16 51°15.224 2°54.291 316.9 12.6 324 12.3
2011-10-03 05:20:21 51°15.238 2°54.275 318.9 12.6 325 12.4
2011-10-03 05:20:26 51°15.253 2°54.26 320.3 12.6 326 12.3
2011-10-03 05:20:31 51°15.267 2°54.244 321.4 12.6 327 12.2
2011-10-03 05:20:36 51°15.282 2°54.229 322 12.6 327 12.3
2011-10-03 05:20:41 51°15.297 2°54.215 322.5 12.6 328 12.3
2011-10-03 05:20:46 51°15.312 2°54.199 322.7 12.6 327 12.3
2011-10-03 05:20:51 51°15.326 2°54.184 322.7 12.5 327 12.3
2011-10-03 05:20:56 51°15.34 2°54.168 321.6 12.5 325 12.3
2011-10-03 05:21:01 51°15.354 2°54.152 320.5 12.6 325 12.2
2011-10-03 05:21:06 51°15.368 2°54.135 319.7 12.5 322 12.4
2011-10-03 05:21:11 51°15.382 2°54.119 318.5 12.5 323 12.4
2011-10-03 05:21:16 51°15.396 2°54.102 318.4 12.6 323 12.5
2011-10-03 05:21:21 51°15.41 2°54.086 318.5 12.5 323 12.6
2011-10-03 05:21:26 51°15.424 2°54.069 318.9 12.5 324 12.5
2011-10-03 05:21:31 51°15.438 2°54.052 318.9 12.5 323 12.7
2011-10-03 05:21:36 51°15.452 2°54.036 318 12.5 323 12.7
2011-10-03 05:21:41 51°15.465 2°54.019 317.6 12.5 323 12.8
2011-10-03 05:21:46 51°15.479 2°54.002 317.4 12.6 323 12.8
2011-10-03 05:21:51 51°15.493 2°53.985 317.3 12.5 323 12.8
2011-10-03 05:21:56 51°15.507 2°53.968 317.3 12.5 323 12.8
2011-10-03 05:22:01 51°15.52 2°53.951 317.2 12.5 323 13
2011-10-03 05:22:06 51°15.534 2°53.934 317.2 12.5 322 13.1
2011-10-03 05:22:11 51°15.548 2°53.918 317.1 12.5 322 13
2011-10-03 05:22:16 51°15.561 2°53.9 316.8 12.5 322 13
2011-10-03 05:22:21 51°15.575 2°53.883 316.7 12.5 322 13.1
2011-10-03 05:22:26 51°15.588 2°53.866 315.9 12.4 319 13
2011-10-03 05:22:31 51°15.601 2°53.847 314.1 12.3 318 13.2
2011-10-03 05:22:36 51°15.613 2°53.828 311.7 12.3 316 13.3
2011-10-03 05:22:41 51°15.625 2°53.81 310.6 12.3 316 13.3
2011-10-03 05:22:46 51°15.637 2°53.79 310.5 12.3 316 13.4
2011-10-03 05:22:51 51°15.649 2°53.771 309.7 12.3 315 13.4
2011-10-03 05:22:56 51°15.661 2°53.752 309.3 12.3 315 13.5
2011-10-03 05:23:01 51°15.673 2°53.732 308.9 12.3 314 13.6
2011-10-03 05:23:06 51°15.685 2°53.713 308.6 12.3 314 13.6
2011-10-03 05:23:11 51°15.697 2°53.694 308.3 12.2 315 13.6
2011-10-03 05:23:16 51°15.709 2°53.675 308.9 12.3 317 13.6
2011-10-03 05:23:21 51°15.722 2°53.657 310.9 12.3 319 13.8
2011-10-03 05:23:26 51°15.735 2°53.639 311.8 12.3 318 13.8
2011-10-03 05:23:31 51°15.748 2°53.622 312.9 12.4 321 13.9
2011-10-03 05:23:36 51°15.761 2°53.604 314 12.3 320 14
2011-10-03 05:23:41 51°15.775 2°53.587 314.3 12.4 322 14.1
2011-10-03 05:23:46 51°15.789 2°53.571 316.1 12.4 324 14.2
2011-10-03 05:23:51 51°15.803 2°53.555 317.3 12.4 324 14
2011-10-03 05:23:56 51°15.817 2°53.54 318.3 12.5 326 14
2011-10-03 05:24:01 51°15.832 2°53.525 320.2 12.5 328 14
2011-10-03 05:24:06 51°15.847 2°53.511 322.3 12.5 329 14.1
2011-10-03 05:24:11 51°15.862 2°53.497 323.2 12.6 330 14.3
2011-10-03 05:24:16 51°15.877 2°53.483 324.2 12.6 331 14.2
2011-10-03 05:24:21 51°15.893 2°53.47 325 12.6 332 14.2
2011-10-03 05:24:26 51°15.908 2°53.457 325.6 12.6 332 14.1
2011-10-03 05:24:31 51°15.924 2°53.445 326.9 12.7 334 13.9
2011-10-03 05:24:36 51°15.94 2°53.433 328.3 12.7 334 14.1
2011-10-03 05:24:41 51°15.956 2°53.421 328.5 12.7 335 14
2011-10-03 05:24:46 51°15.972 2°53.41 329.6 12.7 336 14
2011-10-03 05:24:51 51°15.988 2°53.398 330 12.7 335 14
2011-10-03 05:24:56 51°16.004 2°53.387 329.6 12.7 336 14
2011-10-03 05:25:01 51°16.02 2°53.375 329.8 12.7 336 14
2011-10-03 05:25:06 51°16.036 2°53.364 330.3 12.7 336 14.1
2011-10-03 05:25:11 51°16.052 2°53.352 330.4 12.8 336 14.1
2011-10-03 05:25:16 51°16.068 2°53.341 330.4 12.8 337 14.1
2011-10-03 05:25:21 51°16.084 2°53.329 331.5 12.8 338 14.1
2011-10-03 05:25:26 51°16.1 2°53.318 331.5 12.8 337 14.1
2011-10-03 05:25:31 51°16.117 2°53.308 331.7 12.8 339 14.1
2011-10-03 05:25:36 51°16.134 2°53.299 333.5 12.8 341 14.1
2011-10-03 05:25:41 51°16.151 2°53.29 335 12.9 341 14.2
2011-10-03 05:25:46 51°16.168 2°53.281 335.6 12.9 342 14.3
2011-10-03 05:25:51 51°16.185 2°53.272 335.9 12.9 342 14.2
2011-10-03 05:25:56 51°16.202 2°53.264 336.9 13 344 14.2
2011-10-03 05:26:01 51°16.219 2°53.256 338.4 13 345 14.3
2011-10-03 05:26:06 51°16.237 2°53.25 340.1 13 346 14.3
2011-10-03 05:26:11 51°16.254 2°53.243 341.5 13 347 14.3
2011-10-03 05:26:16 51°16.273 2°53.237 341.6 13 346 14.3
2011-10-03 05:26:21 51°16.29 2°53.231 341.4 13 347 14.3
2011-10-03 05:26:26 51°16.308 2°53.224 341.5 13 346 14.4
2011-10-03 05:26:31 51°16.325 2°53.216 340.2 12.9 343 14.4
2011-10-03 05:26:36 51°16.342 2°53.207 337.6 12.9 342 14.4
2011-10-03 05:26:41 51°16.359 2°53.198 336.3 12.9 342 14.3
2011-10-03 05:26:46 51°16.376 2°53.188 336.1 12.9 342 14.3
2011-10-03 05:26:51 51°16.393 2°53.18 336.2 12.9 341 14.3
2011-10-03 05:26:56 51°16.409 2°53.17 334.7 12.8 339 14.4
2011-10-03 05:27:01 51°16.426 2°53.16 333.6 12.8 339 14.3
2011-10-03 05:27:06 51°16.442 2°53.149 332.9 12.8 337 14.3
2011-10-03 05:27:11 51°16.458 2°53.137 331.5 12.8 337 14.3
2011-10-03 05:27:16 51°16.475 2°53.126 330.5 12.8 336 14.2
2011-10-03 05:27:21 51°16.491 2°53.114 329.6 12.7 335 14.2
2011-10-03 05:27:26 51°16.506 2°53.102 329 12.7 334 14.2
2011-10-03 05:27:31 51°16.522 2°53.089 328.6 12.7 335 14.3
2011-10-03 05:27:36 51°16.538 2°53.077 328.8 12.8 335 14.2
2011-10-03 05:27:41 51°16.554 2°53.065 328.9 12.8 335 14.2
2011-10-03 05:27:46 51°16.57 2°53.052 328.4 12.7 333 14.2
2011-10-03 05:27:51 51°16.586 2°53.04 327.3 12.6 332 14.1
2011-10-03 05:27:56 51°16.601 2°53.027 326 12.6 331 14
2011-10-03 05:28:01 51°16.617 2°53.013 325.6 12.7 333 14
2011-10-03 05:28:06 51°16.633 2°53.001 326.6 12.7 334 13.8
2011-10-03 05:28:11 51°16.649 2°52.989 328 12.7 335 13.8
2011-10-03 05:28:16 51°16.665 2°52.977 328.6 12.7 336 13.7
2011-10-03 05:28:21 51°16.681 2°52.966 329.8 12.8 336 13.7
2011-10-03 05:28:26 51°16.697 2°52.954 330.3 12.8 336 13.5
2011-10-03 05:28:31 51°16.713 2°52.944 330.3 12.8 337 13.5
2011-10-03 05:28:36 51°16.73 2°52.934 331.7 12.9 340 13.2
2011-10-03 05:28:41 51°16.747 2°52.925 334.3 12.9 342 13
2011-10-03 05:28:45 51°16.761 2°52.918 337.2 12.9 344 12.8
2011-10-03 05:28:51 51°16.781 2°52.908 337.6 12.9 341 12.5
2011-10-03 05:28:56 51°16.798 2°52.899 336.6 12.9 342 12
2011-10-03 05:29:01 51°16.815 2°52.889 336.4 12.8 341 11.8
2011-10-03 05:29:06 51°16.832 2°52.88 336.1 12.9 341 11.7
2011-10-03 05:29:11 51°16.849 2°52.871 335.8 12.9 341 11.7
2011-10-03 05:29:16 51°16.866 2°52.863 336.9 13 344 11.6
2011-10-03 05:29:21 51°16.883 2°52.854 338 13 343 11.5
2011-10-03 05:29:26 51°16.901 2°52.847 338.5 13 344 11.5
2011-10-03 05:29:31 51°16.918 2°52.839 339 13 344 11.7
2011-10-03 05:29:36 51°16.935 2°52.831 339.7 13 343 11.8
2011-10-03 05:29:41 51°16.952 2°52.821 337.6 12.9 340 11.7
2011-10-03 05:29:46 51°16.969 2°52.811 335.4 12.9 340 11.9
2011-10-03 05:29:51 51°16.985 2°52.801 334.3 12.8 338 11.9
2011-10-03 05:29:56 51°17.002 2°52.79 333.6 12.8 337 11.8
2011-10-03 05:30:01 51°17.018 2°52.778 332.3 12.8 335 12.2
2011-10-03 05:30:06 51°17.034 2°52.765 330 12.8 333 12.1
2011-10-03 05:30:11 51°17.049 2°52.751 327.4 12.7 331 12.3
2011-10-03 05:30:16 51°17.064 2°52.737 325.4 12.7 330 12.3
2011-10-03 05:30:21 51°17.08 2°52.724 324.5 12.8 332 12.4
2011-10-03 05:30:26 51°17.096 2°52.711 326.9 12.8 334 12.2
2011-10-03 05:30:31 51°17.112 2°52.699 329.1 12.8 334 11.9
2011-10-03 05:30:36 51°17.128 2°52.687 329.3 12.8 334 12
2011-10-03 05:30:41 51°17.144 2°52.674 328.5 12.8 334 11.9
2011-10-03 05:30:45 51°17.157 2°52.665 329 12.9 336 12.1
2011-10-03 05:30:51 51°17.177 2°52.653 331.4 12.9 339 12.1
2011-10-03 05:30:56 51°17.194 2°52.643 333.3 12.9 339 12.1
2011-10-03 05:31:01 51°17.211 2°52.632 334 13 339 12.1
2011-10-03 05:31:06 51°17.228 2°52.623 334 13 340 12
2011-10-03 05:31:11 51°17.245 2°52.614 335.1 13 343 12.3
2011-10-03 05:31:16 51°17.263 2°52.608 338.1 13.1 346 12.2
2011-10-03 05:31:21 51°17.281 2°52.602 341.8 13.1 349 12.2
2011-10-03 05:31:26 51°17.299 2°52.598 344.1 13.2 351 12.2
2011-10-03 05:31:31 51°17.317 2°52.593 346.4 13.2 351 12.4
2011-10-03 05:31:36 51°17.335 2°52.59 347.3 13.2 353 12.5
2011-10-03 05:31:41 51°17.353 2°52.587 349.2 13.3 355 12.5
2011-10-03 05:31:46 51°17.371 2°52.586 351.3 13.3 357 12.6
2011-10-03 05:31:51 51°17.39 2°52.585 353.3 13.3 359 12.4
2011-10-03 05:31:56 51°17.408 2°52.586 355.6 13.3 1 12.5
2011-10-03 05:32:01 51°17.427 2°52.585 356.5 13.4 359 12.4
2011-10-03 05:32:06 51°17.445 2°52.584 355.3 13.4 359 12.5
2011-10-03 05:32:11 51°17.464 2°52.586 356.4 13.4 2 12.7
2011-10-03 05:32:16 51°17.483 2°52.587 358.4 13.4 2 12.6
2011-10-03 05:32:21 51°17.501 2°52.588 358.6 13.4 2 12.5
2011-10-03 05:32:26 51°17.52 2°52.59 359.4 13.5 4 12.6
2011-10-03 05:32:31 51°17.538 2°52.591 359.6 13.5 3 12.5
2011-10-03 05:32:36 51°17.557 2°52.594 0.1 13.5 5 12.7
2011-10-03 05:32:41 51°17.575 2°52.596 1.5 13.5 6 12.7
2011-10-03 05:32:45 51°17.59 2°52.599 3.1 13.5 7 12.7
2011-10-03 05:32:51 51°17.613 2°52.604 3.8 13.5 7 12.6
2011-10-03 05:32:56 51°17.631 2°52.608 4.2 13.6 8 12.4
2011-10-03 05:33:01 51°17.65 2°52.612 5.3 13.6 8 12.7
2011-10-03 05:33:05 51°17.665 2°52.614 4.9 13.5 7 12.8
2011-10-03 05:33:11 51°17.687 2°52.62 5.1 13.5 7 12.8
2011-10-03 05:33:16 51°17.706 2°52.623 4.4 13.5 5 12.6
2011-10-03 05:33:21 51°17.725 2°52.626 3.3 13.5 7 12.6
2011-10-03 05:33:26 51°17.743 2°52.629 3.3 13.5 6 12.6
2011-10-03 05:33:31 51°17.762 2°52.633 3.4 13.5 6 12.8
2011-10-03 05:33:36 51°17.78 2°52.636 3.7 13.5 5 12.4
2011-10-03 05:33:41 51°17.799 2°52.638 2.8 13.5 5 12.7
2011-10-03 05:33:46 51°17.818 2°52.641 2.3 13.5 5 12.6
2011-10-03 05:33:51 51°17.836 2°52.643 2 13.5 5 12.6
2011-10-03 05:33:56 51°17.855 2°52.646 1.9 13.5 4 12.7
2011-10-03 05:34:01 51°17.873 2°52.647 1.1 13.5 4 12.7
2011-10-03 05:34:06 51°17.892 2°52.65 1.4 13.5 4 12.6
2011-10-03 05:34:11 51°17.91 2°52.652 1.2 13.5 5 12.7
2011-10-03 05:34:16 51°17.929 2°52.655 1.3 13.6 5 12.8
2011-10-03 05:34:21 51°17.948 2°52.658 2 13.5 6 12.9
2011-10-03 05:34:26 51°17.967 2°52.662 3.4 13.5 8 12.9
2011-10-03 05:34:31 51°17.985 2°52.667 5.2 13.5 9 12.7
2011-10-03 05:34:36 51°18.004 2°52.672 6.3 13.5 8 13.1
2011-10-03 05:34:41 51°18.022 2°52.676 5.9 13.6 9 12.9
2011-10-03 05:34:46 51°18.041 2°52.682 6.7 13.5 10 13
2011-10-03 05:34:51 51°18.059 2°52.687 7.5 13.5 10 12.8
2011-10-03 05:34:56 51°18.078 2°52.693 7.6 13.6 11 12.9
2011-10-03 05:35:01 51°18.096 2°52.7 8.9 13.6 14 12.9
2011-10-03 05:35:05 51°18.111 2°52.707 11.5 13.7 17 12.9
2011-10-03 05:35:11 51°18.132 2°52.719 14.5 13.6 22 13.1
2011-10-03 05:35:16 51°18.148 2°52.732 19 13.5 26 13
2011-10-03 05:35:21 51°18.165 2°52.746 23.9 13.5 29 13
2011-10-03 05:35:25 51°18.178 2°52.758 27.2 13.5 30 13
2011-10-03 05:35:31 51°18.197 2°52.778 29.8 13.5 34 12.9
2011-10-03 05:35:36 51°18.212 2°52.796 32.7 13.5 36 13.3
2011-10-03 05:35:41 51°18.226 2°52.815 35.8 13.5 39 13
2011-10-03 05:35:46 51°18.24 2°52.835 39.1 13.5 41 13.2
2011-10-03 05:35:51 51°18.254 2°52.855 42.2 13.6 43 13.4
2011-10-03 05:35:56 51°18.267 2°52.876 42.9 13.6 45 13.2
2011-10-03 05:36:01 51°18.28 2°52.899 45.4 13.6 47 13.4
2011-10-03 05:36:06 51°18.293 2°52.921 47.8 13.6 48 13
2011-10-03 05:36:11 51°18.306 2°52.943 48.3 13.6 47 13.2
2011-10-03 05:36:16 51°18.318 2°52.966 48.3 13.7 48 13.2
2011-10-03 05:36:21 51°18.331 2°52.988 48.4 13.7 48 13.4
2011-10-03 05:36:26 51°18.344 2°53.011 48.9 13.7 49 13.4
2011-10-03 05:36:31 51°18.356 2°53.034 49.6 13.7 49 13.4
2011-10-03 05:36:36 51°18.369 2°53.057 50.1 13.7 49 13.3
2011-10-03 05:36:41 51°18.381 2°53.079 50.2 13.7 49 13.2
2011-10-03 05:36:46 51°18.393 2°53.102 49.9 13.7 49 13.2
2011-10-03 05:36:51 51°18.406 2°53.125 49.9 13.7 49 13.5
2011-10-03 05:36:56 51°18.418 2°53.148 49.9 13.7 48 13.4
2011-10-03 05:37:01 51°18.431 2°53.171 49.4 13.7 49 13.3
2011-10-03 05:37:06 51°18.443 2°53.193 49.5 13.7 49 13.6
2011-10-03 05:37:11 51°18.455 2°53.216 49.7 13.6 50 13.4
2011-10-03 05:37:16 51°18.468 2°53.239 50.1 13.6 49 13.4
2011-10-03 05:37:21 51°18.48 2°53.262 50.4 13.6 50 13.3
2011-10-03 05:37:25 51°18.49 2°53.28 50.6 13.6 49 13.5
2011-10-03 05:37:31 51°18.504 2°53.308 50.2 13.6 49 13.6
2011-10-03 05:37:36 51°18.517 2°53.33 49.9 13.6 49 13.6
2011-10-03 05:37:41 51°18.53 2°53.353 49.2 13.6 48 13.4
2011-10-03 05:37:46 51°18.543 2°53.375 48.7 13.6 47 13.6
2011-10-03 05:37:51 51°18.556 2°53.397 47.8 13.6 46 13.4
2011-10-03 05:37:56 51°18.569 2°53.418 46.9 13.7 45 13.6
2011-10-03 05:38:01 51°18.582 2°53.439 46.2 13.7 45 13.5
2011-10-03 05:38:06 51°18.596 2°53.46 45.5 13.7 44 13.7
2011-10-03 05:38:11 51°18.61 2°53.482 44.9 13.6 44 13.5
2011-10-03 05:38:16 51°18.623 2°53.503 44.7 13.7 44 13.6
2011-10-03 05:38:21 51°18.637 2°53.524 44.4 13.6 44 13.7
2011-10-03 05:38:26 51°18.65 2°53.545 44.6 13.6 44 13.7
2011-10-03 05:38:31 51°18.664 2°53.566 44.6 13.6 44 13.6
2011-10-03 05:38:36 51°18.677 2°53.586 43.9 13.6 43 13.6
2011-10-03 05:38:41 51°18.691 2°53.607 43.3 13.6 43 13.6
2011-10-03 05:38:46 51°18.705 2°53.627 43.1 13.5 43 13.7
2011-10-03 05:38:51 51°18.718 2°53.648 43.1 13.5 44 13.7
2011-10-03 05:38:56 51°18.732 2°53.669 43.3 13.5 46 13.8
2011-10-03 05:39:01 51°18.744 2°53.691 45 13.5 47 13.8
2011-10-03 05:39:06 51°18.756 2°53.714 47.2 13.5 49 13.6
2011-10-03 05:39:11 51°18.769 2°53.736 48.8 13.5 48 13.7
2011-10-03 05:39:16 51°18.781 2°53.758 48.4 13.5 48 13.8
2011-10-03 05:39:21 51°18.794 2°53.781 48 13.5 48 13.7
2011-10-03 05:39:26 51°18.807 2°53.802 47.8 13.6 46 13.9
2011-10-03 05:39:31 51°18.82 2°53.824 47.3 13.6 46 13.8
2011-10-03 05:39:36 51°18.833 2°53.846 46.9 13.6 46 13.6
2011-10-03 05:39:41 51°18.846 2°53.868 46.8 13.6 47 13.8
2011-10-03 05:39:46 51°18.859 2°53.889 47.1 13.6 47 13.8
2011-10-03 05:39:51 51°18.872 2°53.912 47.4 13.6 48 13.9
2011-10-03 05:39:56 51°18.884 2°53.934 47.8 13.6 47 13.8
2011-10-03 05:40:01 51°18.897 2°53.956 48 13.5 48 13.8
2011-10-03 05:40:06 51°18.909 2°53.978 48.6 13.5 49 13.9
2011-10-03 05:40:11 51°18.921 2°54.001 49.5 13.5 50 14
2011-10-03 05:40:16 51°18.933 2°54.024 50 13.5 49 13.9
2011-10-03 05:40:21 51°18.946 2°54.046 50 13.5 49 13.8
2011-10-03 05:40:26 51°18.958 2°54.069 50 13.5 49 13.9
2011-10-03 05:40:31 51°18.971 2°54.091 49.5 13.5 48 13.8
2011-10-03 05:40:36 51°18.983 2°54.114 49.2 13.5 48 13.9
2011-10-03 05:40:41 51°18.996 2°54.135 49.2 13.5 48 13.9
2011-10-03 05:40:46 51°19.008 2°54.158 48.7 13.5 48 13.8
2011-10-03 05:40:51 51°19.021 2°54.18 48.8 13.5 48 13.8
2011-10-03 05:40:56 51°19.033 2°54.202 48.8 13.5 48 13.8
2011-10-03 05:41:01 51°19.045 2°54.225 48.9 13.5 48 13.9
2011-10-03 05:41:06 51°19.058 2°54.247 48.9 13.5 48 13.8
2011-10-03 05:41:11 51°19.071 2°54.269 48.6 13.5 47 13.9
2011-10-03 05:41:16 51°19.083 2°54.291 48 13.5 47 14
2011-10-03 05:41:21 51°19.096 2°54.312 47.6 13.5 46 14
2011-10-03 05:41:26 51°19.109 2°54.334 47.1 13.5 46 14
2011-10-03 05:41:31 51°19.122 2°54.355 46.6 13.4 45 14
2011-10-03 05:41:36 51°19.136 2°54.376 46 13.5 45 13.9
2011-10-03 05:41:41 51°19.149 2°54.396 45.1 13.5 44 14
2011-10-03 05:41:45 51°19.16 2°54.413 44.4 13.4 44 14
2011-10-03 05:41:51 51°19.176 2°54.438 45.1 13.4 44 14
2011-10-03 05:41:56 51°19.189 2°54.459 45.1 13.4 44 14
2011-10-03 05:42:01 51°19.202 2°54.48 45.1 13.5 45 14.1
2011-10-03 05:42:06 51°19.215 2°54.501 44.9 13.5 44 14.1
2011-10-03 05:42:11 51°19.229 2°54.522 44.9 13.5 45 14.1
2011-10-03 05:42:16 51°19.242 2°54.543 45.1 13.5 45 14
2011-10-03 05:42:21 51°19.255 2°54.564 45.4 13.6 46 14
2011-10-03 05:42:26 51°19.268 2°54.586 46.1 13.5 46 14.1
2011-10-03 05:42:31 51°19.281 2°54.607 46.3 13.5 46 14.1
2011-10-03 05:42:36 51°19.295 2°54.628 46.2 13.5 45 14
2011-10-03 05:42:41 51°19.308 2°54.649 45.9 13.5 45 14.1
2011-10-03 05:42:46 51°19.321 2°54.671 45.7 13.5 45 14.1
2011-10-03 05:42:51 51°19.334 2°54.692 45.6 13.5 45 14.1
2011-10-03 05:42:56 51°19.348 2°54.713 45.5 13.5 45 14.1
2011-10-03 05:43:01 51°19.361 2°54.734 45.5 13.6 45 14.2
2011-10-03 05:43:06 51°19.374 2°54.756 45.5 13.6 46 14.1
2011-10-03 05:43:11 51°19.387 2°54.777 46.4 13.5 46 14.2
2011-10-03 05:43:16 51°19.4 2°54.799 46.6 13.5 47 14.1
2011-10-03 05:43:21 51°19.412 2°54.821 47.3 13.5 48 14.2
2011-10-03 05:43:26 51°19.425 2°54.843 47.8 13.6 48 14.2
2011-10-03 05:43:31 51°19.438 2°54.866 48.6 13.5 49 14.1
2011-10-03 05:43:36 51°19.45 2°54.888 49.3 13.5 49 14.2
2011-10-03 05:43:41 51°19.462 2°54.912 50.2 13.5 50 14.2
2011-10-03 05:43:46 51°19.475 2°54.934 50 13.6 48 14.2
2011-10-03 05:43:51 51°19.487 2°54.957 49.4 13.6 49 14.2
2011-10-03 05:43:56 51°19.499 2°54.979 49.4 13.5 48 14.2
2011-10-03 05:44:01 51°19.512 2°55.002 49.4 13.5 49 14.2
2011-10-03 05:44:06 51°19.524 2°55.025 49.4 13.6 49 14.2
2011-10-03 05:44:11 51°19.536 2°55.047 49.8 13.6 49 14.3
2011-10-03 05:44:16 51°19.549 2°55.07 49.4 13.5 47 14.3
2011-10-03 05:44:21 51°19.562 2°55.091 47.3 13.6 46 14.2
2011-10-03 05:44:26 51°19.575 2°55.113 45.8 13.6 45 14.3
2011-10-03 05:44:31 51°19.589 2°55.134 44.9 13.6 45 14.2
2011-10-03 05:44:36 51°19.602 2°55.155 44.4 13.5 44 14.3
2011-10-03 05:44:41 51°19.616 2°55.175 43.8 13.5 43 14.3
2011-10-03 05:44:46 51°19.63 2°55.196 42.9 13.5 43 14.3
2011-10-03 05:44:51 51°19.643 2°55.216 43.1 13.5 43 14.3
2011-10-03 05:44:56 51°19.657 2°55.236 42.8 13.5 42 14.2
2011-10-03 05:45:01 51°19.671 2°55.256 42.9 13.4 43 14.4
2011-10-03 05:45:06 51°19.684 2°55.277 43.2 13.4 43 14.4
2011-10-03 05:45:11 51°19.698 2°55.297 43.3 13.4 44 14.4
2011-10-03 05:45:16 51°19.711 2°55.318 43.6 13.5 44 14.4
2011-10-03 05:45:21 51°19.725 2°55.339 44.3 13.5 45 14.5
2011-10-03 05:45:26 51°19.738 2°55.361 45.4 13.5 46 14.4
2011-10-03 05:45:31 51°19.75 2°55.383 47.1 13.5 48 14.4
2011-10-03 05:45:36 51°19.763 2°55.405 48.3 13.5 49 14.4
2011-10-03 05:45:41 51°19.774 2°55.428 49.7 13.5 50 14.4
2011-10-03 05:45:46 51°19.786 2°55.452 51.7 13.5 53 14.4
2011-10-03 05:45:51 51°19.797 2°55.476 53.5 13.5 53 14.5
2011-10-03 05:45:56 51°19.808 2°55.5 54.2 13.4 54 14.3
2011-10-03 05:46:01 51°19.819 2°55.524 54.8 13.4 55 14.4
2011-10-03 05:46:05 51°19.827 2°55.544 56 13.5 55 14.5
2011-10-03 05:46:11 51°19.839 2°55.574 57 13.4 57 14.4
2011-10-03 05:46:16 51°19.85 2°55.599 57.4 13.4 56 14.4
2011-10-03 05:46:21 51°19.86 2°55.623 57.7 13.4 57 14.4
2011-10-03 05:46:26 51°19.87 2°55.648 57.9 13.4 56 14.3
2011-10-03 05:46:31 51°19.881 2°55.673 57.6 13.5 56 14.4
2011-10-03 05:46:36 51°19.891 2°55.698 57.3 13.5 56 14.4
2011-10-03 05:46:41 51°19.902 2°55.723 57.3 13.5 56 14.5
2011-10-03 05:46:46 51°19.912 2°55.748 57.4 13.5 56 14.5
2011-10-03 05:46:51 51°19.923 2°55.772 57 13.5 55 14.6
2011-10-03 05:46:56 51°19.934 2°55.796 55.8 13.4 54 14.5
2011-10-03 05:47:01 51°19.945 2°55.819 54.4 13.5 53 14.4
2011-10-03 05:47:05 51°19.954 2°55.838 53.3 13.5 52 14.4
2011-10-03 05:47:11 51°19.968 2°55.866 51.9 13.4 51 14.5
2011-10-03 05:47:16 51°19.98 2°55.889 51.6 13.5 51 14.4
2011-10-03 05:47:21 51°19.992 2°55.912 51.2 13.4 50 14.4
2011-10-03 05:47:25 51°20.001 2°55.931 50.8 13.5 50 14.5
2011-10-03 05:47:31 51°20.016 2°55.958 50.7 13.5 50 14.5
2011-10-03 05:47:36 51°20.028 2°55.981 50.4 13.5 50 14.3
2011-10-03 05:47:41 51°20.039 2°56.004 50.7 13.5 51 14.5
2011-10-03 05:47:46 51°20.051 2°56.028 50.7 13.5 51 14.5
2011-10-03 05:47:51 51°20.063 2°56.051 50.7 13.5 51 14.4
2011-10-03 05:47:56 51°20.075 2°56.074 51 13.5 51 14.4
2011-10-03 05:48:01 51°20.087 2°56.097 51.4 13.5 51 14.4
2011-10-03 05:48:06 51°20.099 2°56.121 51.3 13.6 51 14.5
2011-10-03 05:48:11 51°20.111 2°56.144 51.2 13.6 51 14.5
2011-10-03 05:48:16 51°20.122 2°56.167 51.2 13.5 51 14.3
2011-10-03 05:48:21 51°20.134 2°56.19 51.6 13.5 51 14.5
2011-10-03 05:48:26 51°20.146 2°56.214 51.9 13.6 51 14.6
2011-10-03 05:48:31 51°20.157 2°56.237 51.9 13.5 51 14.5
2011-10-03 05:48:36 51°20.169 2°56.26 51.9 13.5 51 14.5
2011-10-03 05:48:41 51°20.181 2°56.284 52 13.5 51 14.5
2011-10-03 05:48:46 51°20.193 2°56.307 52 13.5 51 14.6
2011-10-03 05:48:51 51°20.204 2°56.331 52 13.5 52 14.4
2011-10-03 05:48:56 51°20.216 2°56.354 52.3 13.5 52 14.6
2011-10-03 05:49:01 51°20.227 2°56.378 52.9 13.5 53 14.5
2011-10-03 05:49:05 51°20.236 2°56.397 53.5 13.5 53 14.5
2011-10-03 05:49:11 51°20.249 2°56.426 54.2 13.6 54 14.6
2011-10-03 05:49:16 51°20.26 2°56.451 54.9 13.5 54 14.4
2011-10-03 05:49:21 51°20.271 2°56.475 55 13.5 55 14.5
2011-10-03 05:49:26 51°20.282 2°56.499 55.4 13.5 55 14.5
2011-10-03 05:49:31 51°20.292 2°56.524 55.6 13.5 56 14.5
2011-10-03 05:49:36 51°20.303 2°56.549 56.2 13.5 56 14.4
2011-10-03 05:49:41 51°20.313 2°56.574 56.4 13.5 56 14.5
2011-10-03 05:49:46 51°20.324 2°56.598 56.9 13.5 56 14.5
2011-10-03 05:49:51 51°20.334 2°56.624 57.7 13.5 57 14.6
2011-10-03 05:49:56 51°20.345 2°56.649 58.1 13.5 57 14.5
2011-10-03 05:50:01 51°20.354 2°56.674 58.2 13.5 58 14.5
2011-10-03 05:50:06 51°20.364 2°56.699 58.6 13.5 57 14.4
2011-10-03 05:50:11 51°20.375 2°56.724 58.3 13.5 57 14.5
2011-10-03 05:50:16 51°20.385 2°56.749 58.2 13.5 57 14.5
2011-10-03 05:50:21 51°20.395 2°56.774 58.1 13.5 57 14.4
2011-10-03 05:50:26 51°20.406 2°56.799 57.6 13.5 56 14.5
2011-10-03 05:50:31 51°20.417 2°56.823 57.1 13.5 55 14.4
2011-10-03 05:50:36 51°20.428 2°56.848 56 13.5 54 14.4
2011-10-03 05:50:41 51°20.439 2°56.872 55.1 13.5 53 14.4
2011-10-03 05:50:46 51°20.45 2°56.895 54 13.5 52 14.5
2011-10-03 05:50:51 51°20.462 2°56.919 52.9 13.5 52 14.5
2011-10-03 05:50:56 51°20.473 2°56.943 53 13.5 53 14.5
2011-10-03 05:51:01 51°20.485 2°56.966 53.1 13.5 52 14.5
2011-10-03 05:51:06 51°20.496 2°56.99 53.1 13.5 52 14.5
2011-10-03 05:51:11 51°20.508 2°57.013 52.4 13.5 51 14.4
2011-10-03 05:51:16 51°20.52 2°57.036 51.9 13.5 51 14.4
2011-10-03 05:51:21 51°20.532 2°57.059 51.9 13.5 51 14.4
2011-10-03 05:51:26 51°20.543 2°57.083 51.2 13.5 50 14.4
2011-10-03 05:51:31 51°20.555 2°57.106 51.3 13.5 51 14.5
2011-10-03 05:51:36 51°20.567 2°57.129 51.6 13.5 51 14.5
2011-10-03 05:51:41 51°20.579 2°57.153 52.1 13.5 52 14.4
2011-10-03 05:51:46 51°20.591 2°57.176 52.3 13.6 51 14.4
2011-10-03 05:51:51 51°20.602 2°57.2 52.6 13.6 52 14.3
2011-10-03 05:51:56 51°20.614 2°57.224 53.2 13.6 52 14.4
2011-10-03 05:52:01 51°20.625 2°57.247 52.8 13.6 52 14.4
2011-10-03 05:52:06 51°20.637 2°57.271 52.4 13.6 52 14.4
2011-10-03 05:52:11 51°20.649 2°57.294 52.4 13.6 52 14.3
2011-10-03 05:52:16 51°20.66 2°57.318 52.6 13.5 52 14.5
2011-10-03 05:52:21 51°20.672 2°57.342 52.6 13.5 52 14.4
2011-10-03 05:52:26 51°20.684 2°57.366 52.8 13.6 52 14.5
2011-10-03 05:52:31 51°20.695 2°57.389 52.9 13.6 52 14.4
2011-10-03 05:52:36 51°20.707 2°57.413 52.7 13.6 52 14.3
2011-10-03 05:52:41 51°20.719 2°57.437 52.7 13.6 52 14.4
2011-10-03 05:52:46 51°20.73 2°57.462 53.6 13.6 54 14.4
2011-10-03 05:52:51 51°20.74 2°57.487 55.5 13.7 56 14.5
2011-10-03 05:52:56 51°20.751 2°57.512 56.7 13.7 56 14.4
2011-10-03 05:53:01 51°20.761 2°57.537 57.5 13.7 57 14.4
2011-10-03 05:53:05 51°20.77 2°57.557 58.2 13.7 56 14.4
2011-10-03 05:53:11 51°20.782 2°57.588 58.2 13.7 57 14.4
2011-10-03 05:53:16 51°20.793 2°57.613 58.5 13.7 56 14.4
2011-10-03 05:53:21 51°20.803 2°57.638 57.4 13.7 55 14.3
2011-10-03 05:53:26 51°20.814 2°57.663 57.3 13.7 57 14.4
2011-10-03 05:53:31 51°20.824 2°57.688 57.4 13.6 56 14.3
2011-10-03 05:53:36 51°20.835 2°57.713 57.4 13.6 55 14.3
2011-10-03 05:53:41 51°20.846 2°57.737 56 13.6 54 14.3
2011-10-03 05:53:46 51°20.858 2°57.761 55.1 13.6 54 14.4
2011-10-03 05:53:51 51°20.869 2°57.785 53.9 13.5 52 14.3
2011-10-03 05:53:56 51°20.881 2°57.808 53.1 13.5 51 14.3
2011-10-03 05:54:01 51°20.893 2°57.831 52.3 13.5 51 14.3
2011-10-03 05:54:06 51°20.905 2°57.854 51.9 13.5 51 14.3
2011-10-03 05:54:11 51°20.916 2°57.877 51.2 13.5 50 14.3
2011-10-03 05:54:16 51°20.929 2°57.9 50.9 13.6 50 14.2
2011-10-03 05:54:21 51°20.94 2°57.924 51.4 13.5 51 14.3
2011-10-03 05:54:26 51°20.952 2°57.947 51.7 13.6 51 14.3
2011-10-03 05:54:31 51°20.964 2°57.971 52.1 13.6 52 14.2
2011-10-03 05:54:36 51°20.975 2°57.995 53.2 13.6 54 14.3
2011-10-03 05:54:41 51°20.985 2°58.02 54.7 13.6 55 14.3
2011-10-03 05:54:46 51°20.996 2°58.045 56.6 13.6 56 14.2
2011-10-03 05:54:51 51°21.006 2°58.07 57.1 13.6 57 14.3
2011-10-03 05:54:56 51°21.017 2°58.095 57.8 13.6 55 14.2
2011-10-03 05:55:01 51°21.027 2°58.12 57.5 13.6 57 14.2
2011-10-03 05:55:06 51°21.038 2°58.145 57.8 13.6 56 14.2
2011-10-03 05:55:11 51°21.048 2°58.17 58.5 13.6 57 14.2
2011-10-03 05:55:16 51°21.058 2°58.195 58 13.6 56 14.2
2011-10-03 05:55:21 51°21.069 2°58.221 58 13.6 57 14.2
2011-10-03 05:55:26 51°21.08 2°58.246 57.8 13.6 56 14.2
2011-10-03 05:55:31 51°21.09 2°58.271 57.6 13.6 56 14.3
2011-10-03 05:55:36 51°21.101 2°58.296 57.6 13.6 56 14.2
2011-10-03 05:55:41 51°21.111 2°58.321 57.5 13.6 56 14.2
2011-10-03 05:55:46 51°21.122 2°58.346 57.3 13.6 55 14.2
2011-10-03 05:55:51 51°21.133 2°58.37 56.6 13.6 53 14.2
2011-10-03 05:55:56 51°21.144 2°58.394 55 13.6 54 14.2
2011-10-03 05:56:01 51°21.155 2°58.419 55 13.6 53 14.2
2011-10-03 05:56:06 51°21.168 2°58.442 53.7 13.6 51 14.1
2011-10-03 05:56:11 51°21.179 2°58.466 53 13.6 52 14
2011-10-03 05:56:16 51°21.191 2°58.489 52.3 13.6 51 14.1
2011-10-03 05:56:21 51°21.204 2°58.512 51.5 13.6 50 14.1
2011-10-03 05:56:26 51°21.216 2°58.534 49.7 13.6 48 14.1
2011-10-03 05:56:31 51°21.229 2°58.557 48.7 13.6 47 14
2011-10-03 05:56:36 51°21.242 2°58.579 48.1 13.7 47 14.1
2011-10-03 05:56:41 51°21.255 2°58.601 47.6 13.6 46 14
2011-10-03 05:56:46 51°21.268 2°58.623 47.3 13.6 47 14
2011-10-03 05:56:51 51°21.281 2°58.645 47.1 13.6 46 14
2011-10-03 05:56:56 51°21.294 2°58.667 47.1 13.6 47 14.1
2011-10-03 05:57:01 51°21.307 2°58.689 47 13.6 47 14.1
2011-10-03 05:57:06 51°21.32 2°58.711 47.3 13.6 47 14.1
2011-10-03 05:57:11 51°21.333 2°58.733 47.8 13.7 47 14.1
2011-10-03 05:57:16 51°21.345 2°58.755 47.8 13.6 47 14
2011-10-03 05:57:21 51°21.358 2°58.777 48 13.6 47 14
2011-10-03 05:57:25 51°21.369 2°58.795 47.5 13.6 47 14
2011-10-03 05:57:31 51°21.384 2°58.822 47.5 13.6 47 14
2011-10-03 05:57:36 51°21.397 2°58.844 47.9 13.7 48 14
2011-10-03 05:57:41 51°21.409 2°58.867 48.7 13.6 49 13.9
2011-10-03 05:57:46 51°21.422 2°58.89 49.5 13.7 49 13.9
2011-10-03 05:57:51 51°21.434 2°58.913 49.5 13.7 49 13.8
2011-10-03 05:57:56 51°21.447 2°58.935 49.3 13.7 49 13.9
2011-10-03 05:58:01 51°21.46 2°58.958 49 13.7 48 13.8
2011-10-03 05:58:06 51°21.472 2°58.98 49 13.7 49 13.8
2011-10-03 05:58:11 51°21.485 2°59.003 48.7 13.7 48 13.9
2011-10-03 05:58:16 51°21.498 2°59.025 48.9 13.7 48 13.9
2011-10-03 05:58:21 51°21.51 2°59.048 49.3 13.7 49 13.8
2011-10-03 05:58:26 51°21.523 2°59.071 49.4 13.7 49 13.8
2011-10-03 05:58:31 51°21.535 2°59.094 49.7 13.6 50 13.9
2011-10-03 05:58:36 51°21.547 2°59.117 50.2 13.6 49 13.9
2011-10-03 05:58:41 51°21.559 2°59.14 50.5 13.6 50 13.8
2011-10-03 05:58:46 51°21.571 2°59.163 51.2 13.6 50 13.8
2011-10-03 05:58:51 51°21.583 2°59.187 51.4 13.7 51 13.8
2011-10-03 05:58:56 51°21.595 2°59.21 51.5 13.7 50 13.8
2011-10-03 05:59:01 51°21.607 2°59.234 51.6 13.7 51 13.8
2011-10-03 05:59:06 51°21.619 2°59.257 52.1 13.7 51 13.8
2011-10-03 05:59:11 51°21.631 2°59.281 52.3 13.7 51 13.8
2011-10-03 05:59:16 51°21.643 2°59.304 52.4 13.6 51 13.9
2011-10-03 05:59:21 51°21.655 2°59.328 52.3 13.6 51 13.8
2011-10-03 05:59:26 51°21.666 2°59.352 52.3 13.6 51 13.9
2011-10-03 05:59:31 51°21.678 2°59.375 52.3 13.7 51 13.7
2011-10-03 05:59:36 51°21.69 2°59.399 52.3 13.7 51 13.9
2011-10-03 05:59:41 51°21.702 2°59.423 52.4 13.6 51 13.8
2011-10-03 05:59:45 51°21.711 2°59.442 52.7 13.6 52 13.8
2011-10-03 05:59:51 51°21.726 2°59.47 53.1 13.7 51 13.8
2011-10-03 05:59:56 51°21.737 2°59.494 53.1 13.7 52 13.8
2011-10-03 06:00:01 51°21.749 2°59.518 53.1 13.7 51 13.9
2011-10-03 06:00:06 51°21.761 2°59.542 53 13.7 51 13.8
2011-10-03 06:00:11 51°21.773 2°59.565 52.5 13.7 51 13.8
2011-10-03 06:00:16 51°21.785 2°59.589 51.9 13.7 51 13.8
2011-10-03 06:00:21 51°21.797 2°59.612 51.3 13.8 50 13.8
2011-10-03 06:00:26 51°21.809 2°59.635 50.9 13.8 50 13.8
2011-10-03 06:00:31 51°21.822 2°59.658 50.5 13.8 50 13.8
2011-10-03 06:00:36 51°21.834 2°59.682 51.1 13.8 52 13.7
2011-10-03 06:00:41 51°21.846 2°59.706 51.9 13.8 51 13.7
2011-10-03 06:00:46 51°21.857 2°59.73 52.5 13.8 52 13.6
2011-10-03 06:00:51 51°21.869 2°59.754 53.3 13.8 52 13.6
2011-10-03 06:00:56 51°21.881 2°59.778 53.7 13.8 52 13.7
2011-10-03 06:01:01 51°21.892 2°59.802 53.5 13.8 53 13.7
2011-10-03 06:01:06 51°21.904 2°59.826 53.3 13.8 52 13.6
2011-10-03 06:01:11 51°21.916 2°59.851 53.5 13.8 52 13.6
2011-10-03 06:01:16 51°21.927 2°59.875 53.5 13.9 54 13.6
2011-10-03 06:01:21 51°21.938 2°59.9 55.8 13.8 54 13.6
2011-10-03 06:01:26 51°21.949 2°59.926 56.9 13.8 56 13.6
2011-10-03 06:01:31 51°21.959 2°59.951 58.9 13.8 56 13.6
2011-10-03 06:01:36 51°21.969 2°59.977 58.2 13.8 60 13.6
2011-10-03 06:01:41 51°21.979 3°0.003 59.9 13.8 59 13.6
2011-10-03 06:01:45 51°21.988 3°0.023 59 13.8 56 13.5
2011-10-03 06:01:51 51°22 3°0.054 59 13.8 56 13.6
2011-10-03 06:01:56 51°22.012 3°0.079 58.2 13.8 56 13.5
2011-10-03 06:02:01 51°22.021 3°0.106 58.8 13.8 58 13.5
2011-10-03 06:02:05 51°22.03 3°0.126 59.3 13.8 56 13.5
2011-10-03 06:02:11 51°22.042 3°0.157 59.3 13.8 58 13.5
2011-10-03 06:02:16 51°22.053 3°0.183 59.6 13.8 57 13.5
2011-10-03 06:02:21 51°22.063 3°0.208 58.6 13.8 56 13.4
2011-10-03 06:02:25 51°22.072 3°0.228 57.7 13.9 55 13.4
2011-10-03 06:02:31 51°22.085 3°0.259 57.1 13.8 54 13.4
2011-10-03 06:02:36 51°22.097 3°0.283 56 13.8 54 13.4
2011-10-03 06:02:41 51°22.108 3°0.308 55.2 13.8 53 13.4
2011-10-03 06:02:45 51°22.118 3°0.327 53.8 13.8 52 13.4
2011-10-03 06:02:51 51°22.133 3°0.355 53.1 13.8 51 13.4
2011-10-03 06:02:56 51°22.145 3°0.379 52.1 13.8 50 13.3
2011-10-03 06:03:01 51°22.157 3°0.403 52 13.8 52 13.3
2011-10-03 06:03:06 51°22.169 3°0.426 52.3 13.8 50 13.3
2011-10-03 06:03:11 51°22.181 3°0.45 52.3 13.8 51 13.3
2011-10-03 06:03:16 51°22.193 3°0.474 52.6 13.8 51 13.2
2011-10-03 06:03:21 51°22.205 3°0.498 52.5 13.8 51 13.3
2011-10-03 06:03:26 51°22.217 3°0.522 52.7 13.8 52 13.3
2011-10-03 06:03:31 51°22.228 3°0.547 53.7 13.8 53 13.4
2011-10-03 06:03:36 51°22.239 3°0.572 55 13.8 56 13.3
2011-10-03 06:03:41 51°22.25 3°0.597 57.2 13.8 56 13.2
2011-10-03 06:03:46 51°22.26 3°0.623 57.6 13.9 55 13.3
2011-10-03 06:03:51 51°22.271 3°0.649 58.5 13.8 58 13.1
2011-10-03 06:03:56 51°22.282 3°0.674 58.9 13.9 56 13.2
2011-10-03 06:04:01 51°22.292 3°0.7 58.9 13.8 58 13.2
2011-10-03 06:04:06 51°22.303 3°0.726 59.3 13.9 56 13.1
2011-10-03 06:04:11 51°22.313 3°0.752 59.2 13.9 57 13.1
2011-10-03 06:04:16 51°22.323 3°0.777 59.1 13.8 57 13.1
2011-10-03 06:04:21 51°22.334 3°0.803 59.2 13.9 57 13.1
2011-10-03 06:04:25 51°22.342 3°0.824 59.2 13.9 57 13.1
2011-10-03 06:04:31 51°22.355 3°0.855 58.9 13.8 57 13
2011-10-03 06:04:36 51°22.366 3°0.88 58.9 13.8 56 13
2011-10-03 06:04:41 51°22.376 3°0.906 58.8 13.8 57 13
2011-10-03 06:04:46 51°22.387 3°0.931 58.9 13.8 57 13
2011-10-03 06:04:51 51°22.397 3°0.957 58.6 13.8 57 12.9
2011-10-03 06:04:56 51°22.407 3°0.983 58.9 13.8 56 12.7
2011-10-03 06:05:01 51°22.418 3°1.008 58.3 13.8 55 12.8
2011-10-03 06:05:06 51°22.43 3°1.032 57.4 13.8 54 12.8
2011-10-03 06:05:11 51°22.442 3°1.056 55.2 13.8 52 12.6
2011-10-03 06:05:16 51°22.453 3°1.08 53.7 13.8 53 12.7
2011-10-03 06:05:21 51°22.466 3°1.104 53.6 13.8 51 12.7
2011-10-03 06:05:26 51°22.477 3°1.129 53.4 13.9 52 12.9
2011-10-03 06:05:31 51°22.489 3°1.153 53.4 13.9 52 12.9
2011-10-03 06:05:36 51°22.501 3°1.177 54 13.9 53 13.1
2011-10-03 06:05:41 51°22.512 3°1.202 54.9 13.9 54 13.3
2011-10-03 06:05:46 51°22.523 3°1.227 55.7 13.9 54 13.3
2011-10-03 06:05:51 51°22.534 3°1.252 56.7 13.9 55 13.3
2011-10-03 06:05:56 51°22.545 3°1.278 57.1 13.9 55 13.3
2011-10-03 06:06:01 51°22.556 3°1.303 58 13.9 56 13.3
2011-10-03 06:06:06 51°22.567 3°1.328 58 13.9 55 13.3
2011-10-03 06:06:11 51°22.578 3°1.354 57.5 13.9 55 13.2
2011-10-03 06:06:16 51°22.589 3°1.379 57.4 13.9 55 13.1
2011-10-03 06:06:21 51°22.6 3°1.404 57.7 13.9 55 12.9
2011-10-03 06:06:25 51°22.609 3°1.424 57.4 13.9 55 13
2011-10-03 06:06:31 51°22.622 3°1.455 57.4 13.9 55 12.7
2011-10-03 06:06:36 51°22.633 3°1.48 57.4 13.9 55 12.6
2011-10-03 06:06:41 51°22.644 3°1.505 57.4 13.9 55 12.5
2011-10-03 06:06:46 51°22.655 3°1.53 57.3 13.9 55 13
2011-10-03 06:06:51 51°22.666 3°1.556 57.4 13.9 55 13.4
2011-10-03 06:06:56 51°22.677 3°1.581 57.4 13.9 55 13.4
2011-10-03 06:07:01 51°22.688 3°1.606 57.4 13.9 55 13.3
2011-10-03 06:07:06 51°22.699 3°1.632 57.4 13.9 55 13.1
2011-10-03 06:07:11 51°22.71 3°1.657 57.6 13.9 54 12.8
2011-10-03 06:07:16 51°22.721 3°1.682 57 13.9 54 12.7
2011-10-03 06:07:21 51°22.732 3°1.707 56.7 13.8 54 12.3
2011-10-03 06:07:26 51°22.744 3°1.732 56.5 13.8 54 12.1
2011-10-03 06:07:31 51°22.755 3°1.756 56.3 13.8 53 12.7
2011-10-03 06:07:36 51°22.767 3°1.78 55.4 13.8 52 13.1
2011-10-03 06:07:41 51°22.779 3°1.804 53.1 13.9 50 13.6
2011-10-03 06:07:46 51°22.792 3°1.827 51.9 13.8 50 13.7
2011-10-03 06:07:51 51°22.804 3°1.85 51.4 13.8 50 13.8
2011-10-03 06:07:56 51°22.817 3°1.873 50.7 13.9 49 13.7
2011-10-03 06:08:01 51°22.83 3°1.896 50.6 13.8 49 13.4
2011-10-03 06:08:05 51°22.84 3°1.915 50.9 13.8 49 13.3
2011-10-03 06:08:11 51°22.855 3°1.943 50.9 13.8 49 13.4
2011-10-03 06:08:16 51°22.867 3°1.965 50.2 13.8 48 13
2011-10-03 06:08:21 51°22.88 3°1.988 50.1 13.7 49 12.9
2011-10-03 06:08:26 51°22.893 3°2.011 50.2 13.7 49 12.6
2011-10-03 06:08:31 51°22.905 3°2.034 50.6 13.7 50 11.9
2011-10-03 06:08:36 51°22.917 3°2.057 51.4 13.7 50 11.2
2011-10-03 06:08:41 51°22.93 3°2.08 51.3 13.6 50 10
2011-10-03 06:08:46 51°22.942 3°2.104 51.3 13.6 51 9.6
2011-10-03 06:08:51 51°22.954 3°2.127 51.6 13.6 51 11.6
2011-10-03 06:08:56 51°22.965 3°2.151 52.3 13.7 52 12.2
2011-10-03 06:09:01 51°22.977 3°2.175 53.7 13.8 53 12.7
2011-10-03 06:09:06 51°22.988 3°2.2 55 13.9 54 13.2
2011-10-03 06:09:11 51°22.999 3°2.226 56.5 13.9 55 13.9
2011-10-03 06:09:16 51°23.01 3°2.251 57.4 13.9 56 14
2011-10-03 06:09:21 51°23.021 3°2.277 57.9 13.9 56 14.1
2011-10-03 06:09:26 51°23.031 3°2.302 58.3 13.8 57 14
2011-10-03 06:09:31 51°23.042 3°2.328 59.1 13.8 57 13.6
2011-10-03 06:09:36 51°23.052 3°2.353 59.1 13.7 56 13.5
2011-10-03 06:09:41 51°23.063 3°2.379 58.9 13.8 56 13.9
2011-10-03 06:09:46 51°23.074 3°2.404 58.8 13.7 56 14.3
2011-10-03 06:09:51 51°23.085 3°2.429 58.3 13.8 55 14.8
2011-10-03 06:09:56 51°23.095 3°2.454 58.1 13.8 55 14.8
2011-10-03 06:10:01 51°23.106 3°2.479 58 13.7 55 14.9
2011-10-03 06:10:06 51°23.117 3°2.504 58 13.7 56 14.8
2011-10-03 06:10:11 51°23.128 3°2.529 58 13.8 55 15
2011-10-03 06:10:16 51°23.139 3°2.554 57.5 13.7 55 14.8
2011-10-03 06:10:21 51°23.15 3°2.579 57.1 13.7 55 14.9
2011-10-03 06:10:25 51°23.159 3°2.599 56.9 13.7 54 14.9
2011-10-03 06:10:31 51°23.172 3°2.628 56.9 13.7 54 14.9
2011-10-03 06:10:36 51°23.183 3°2.653 56.8 13.7 55 14.9
2011-10-03 06:10:41 51°23.194 3°2.678 56.8 13.8 55 14.9
2011-10-03 06:10:46 51°23.205 3°2.703 56.8 13.7 54 14.6
2011-10-03 06:10:51 51°23.216 3°2.727 56.9 13.7 55 14.4
2011-10-03 06:10:56 51°23.227 3°2.752 57.2 13.6 55 14.1
2011-10-03 06:11:01 51°23.238 3°2.777 57.3 13.7 55 13.5
2011-10-03 06:11:06 51°23.249 3°2.802 57.3 13.6 55 12.5
2011-10-03 06:11:11 51°23.26 3°2.826 57.3 13.6 55 10.9
2011-10-03 06:11:16 51°23.271 3°2.85 56.9 13.5 54 12.7
2011-10-03 06:11:21 51°23.282 3°2.874 56 13.5 53 13.9
2011-10-03 06:11:26 51°23.295 3°2.897 53.7 13.7 50 14.3
2011-10-03 06:11:31 51°23.307 3°2.92 52.3 13.7 50 14.3
2011-10-03 06:11:36 51°23.319 3°2.943 51.6 13.7 49 14.4
2011-10-03 06:11:41 51°23.332 3°2.966 50.9 13.7 49 14.4
2011-10-03 06:11:46 51°23.344 3°2.989 50.8 13.7 49 14.5
2011-10-03 06:11:51 51°23.357 3°3.012 50.8 13.7 49 14.5
2011-10-03 06:11:56 51°23.369 3°3.035 50.9 13.7 49 14.5
2011-10-03 06:12:01 51°23.382 3°3.058 50.9 13.7 49 14.7
2011-10-03 06:12:06 51°23.394 3°3.081 51.3 13.7 50 15.1
2011-10-03 06:12:11 51°23.406 3°3.105 52 13.7 50 15.3
2011-10-03 06:12:16 51°23.417 3°3.129 53.4 13.7 53 15.3
2011-10-03 06:12:21 51°23.429 3°3.153 54.5 13.7 52 15.4
2011-10-03 06:12:25 51°23.438 3°3.172 55.3 13.6 54 15.4
2011-10-03 06:12:31 51°23.451 3°3.202 56.4 13.7 54 15.4
2011-10-03 06:12:36 51°23.462 3°3.227 56.8 13.7 54 15.5
2011-10-03 06:12:41 51°23.472 3°3.252 57.4 13.6 56 15.5
2011-10-03 06:12:46 51°23.483 3°3.276 58 13.6 55 15.4
2011-10-03 06:12:51 51°23.494 3°3.301 57.9 13.6 55 15.4
2011-10-03 06:12:56 51°23.505 3°3.326 57.8 13.6 55 15.4
2011-10-03 06:13:01 51°23.517 3°3.349 55.9 13.6 51 15.4
2011-10-03 06:13:06 51°23.528 3°3.373 54.4 13.5 52 15.4
2011-10-03 06:13:11 51°23.541 3°3.395 53.5 13.5 49 15.3
2011-10-03 06:13:16 51°23.553 3°3.417 51.6 13.5 48 15.2
2011-10-03 06:13:21 51°23.566 3°3.439 49.7 13.5 46 15
2011-10-03 06:13:26 51°23.58 3°3.46 47.4 13.5 44 14.7
2011-10-03 06:13:31 51°23.593 3°3.481 46.5 13.5 45 13.8
2011-10-03 06:13:36 51°23.607 3°3.501 46 13.5 43 12.6
2011-10-03 06:13:41 51°23.62 3°3.522 45.5 13.5 44 10.4
2011-10-03 06:13:46 51°23.634 3°3.543 45.3 13.5 44 12.6
2011-10-03 06:13:51 51°23.647 3°3.564 45.4 13.5 45 13.9
2011-10-03 06:13:56 51°23.66 3°3.585 46.1 13.6 45 14.9
2011-10-03 06:14:01 51°23.673 3°3.607 47.1 13.7 46 15.2
2011-10-03 06:14:06 51°23.686 3°3.629 48 13.7 46 15.4
2011-10-03 06:14:11 51°23.699 3°3.651 48.4 13.7 47 15.5
2011-10-03 06:14:17 51°23.715 3°3.678 48.8 13.6 47 15.6
2011-10-03 06:14:21 51°23.725 3°3.696 49 13.6 47 15.6
2011-10-03 06:14:25 51°23.735 3°3.713 48.8 13.6 47 15.7
2011-10-03 06:14:31 51°23.751 3°3.74 48.7 13.6 47 15.7
2011-10-03 06:14:36 51°23.764 3°3.761 48.5 13.6 46 15.8
2011-10-03 06:14:41 51°23.777 3°3.783 48 13.6 46 15.5
2011-10-03 06:14:46 51°23.79 3°3.805 48.3 13.6 47 15.6
2011-10-03 06:14:51 51°23.803 3°3.827 48.9 13.6 48 15.5
2011-10-03 06:14:56 51°23.815 3°3.85 49.5 13.6 48 15.5
2011-10-03 06:15:01 51°23.828 3°3.873 50.2 13.6 49 15.5
2011-10-03 06:15:06 51°23.84 3°3.895 50.5 13.6 48 15.6
2011-10-03 06:15:11 51°23.853 3°3.918 50.7 13.6 49 15.6
2011-10-03 06:15:16 51°23.865 3°3.94 50.9 13.6 49 15.7
2011-10-03 06:15:21 51°23.878 3°3.963 50.7 13.6 48 15.7
2011-10-03 06:15:26 51°23.891 3°3.984 49 13.5 46 15.6
2011-10-03 06:15:31 51°23.904 3°4.006 48.5 13.5 47 15.7
2011-10-03 06:15:36 51°23.917 3°4.027 48.1 13.6 45 15.8
2011-10-03 06:15:41 51°23.93 3°4.049 47.2 13.5 45 15.7
2011-10-03 06:15:46 51°23.942 3°4.072 48.9 13.5 49 15.6
2011-10-03 06:15:51 51°23.955 3°4.094 49.5 13.6 47 15.7
2011-10-03 06:15:56 51°23.967 3°4.117 50 13.5 50 15.7
2011-10-03 06:16:01 51°23.98 3°4.139 50.9 13.5 49 15.7
2011-10-03 06:16:06 51°23.992 3°4.162 51.1 13.6 49 15.8
2011-10-03 06:16:11 51°24.004 3°4.185 51.6 13.5 51 15.7
2011-10-03 06:16:16 51°24.015 3°4.209 53.1 13.5 52 16
2011-10-03 06:16:21 51°24.027 3°4.233 54.5 13.6 53 15.8
2011-10-03 06:16:25 51°24.035 3°4.252 55.8 13.5 55 15.8
2011-10-03 06:16:31 51°24.048 3°4.282 57.4 13.5 56 15.7
2011-10-03 06:16:36 51°24.058 3°4.308 59.3 13.5 58 16.3
2011-10-03 06:16:41 51°24.068 3°4.333 60.3 13.5 58 16.3
2011-10-03 06:16:46 51°24.078 3°4.358 60.8 13.5 58 16.6
2011-10-03 06:16:51 51°24.087 3°4.384 61.7 13.5 59 16.9
2011-10-03 06:16:56 51°24.097 3°4.409 61.8 13.5 59 17.1
2011-10-03 06:17:01 51°24.106 3°4.435 62.2 13.4 60 17.7
2011-10-03 06:17:06 51°24.116 3°4.461 62.5 13.5 59 18.3
2011-10-03 06:17:11 51°24.125 3°4.486 62.5 13.5 60 20.5
2011-10-03 06:17:16 51°24.135 3°4.512 61.7 13.5 57 21.3
2011-10-03 06:17:21 51°24.145 3°4.537 60.1 13.5 58 21.9
2011-10-03 06:17:26 51°24.155 3°4.562 60 13.5 58 20.6
2011-10-03 06:17:31 51°24.166 3°4.587 59.4 13.5 57 20.8
2011-10-03 06:17:36 51°24.176 3°4.612 59.2 13.5 56 20.9
2011-10-03 06:17:41 51°24.186 3°4.637 58.9 13.5 56 21
2011-10-03 06:17:46 51°24.197 3°4.661 58.9 13.4 57 21
2011-10-03 06:17:51 51°24.207 3°4.686 58.9 13.4 56 21.1
2011-10-03 06:17:56 51°24.217 3°4.711 58.7 13.4 57 21.2
2011-10-03 06:18:01 51°24.228 3°4.736 58.7 13.4 56 21.2
2011-10-03 06:18:05 51°24.236 3°4.755 58.4 13.4 56 21.1
2011-10-03 06:18:11 51°24.249 3°4.785 58 13.4 56 21.3
2011-10-03 06:18:16 51°24.259 3°4.81 58.2 13.4 56 21.2
2011-10-03 06:18:21 51°24.269 3°4.835 58.7 13.4 56 21.2
2011-10-03 06:18:25 51°24.277 3°4.854 58.7 13.4 56 21.2
2011-10-03 06:18:31 51°24.29 3°4.884 58.2 13.3 56 21.2
2011-10-03 06:18:36 51°24.3 3°4.908 57.7 13.4 55 21.1
2011-10-03 06:18:41 51°24.311 3°4.932 57.4 13.4 54 20.7
2011-10-03 06:18:45 51°24.32 3°4.951 56.7 13.3 54 19.8
2011-10-03 06:18:51 51°24.333 3°4.98 56 13.3 53 19.6
2011-10-03 06:18:56 51°24.345 3°5.003 55 13.3 52 19
2011-10-03 06:19:01 51°24.356 3°5.026 53.4 13.3 50 18.2
2011-10-03 06:19:06 51°24.368 3°5.049 52.5 13.3 51 17.8
2011-10-03 06:19:11 51°24.38 3°5.071 52.9 13.3 51 17.3
2011-10-03 06:19:16 51°24.392 3°5.093 52.3 13.3 49 17.4
2011-10-03 06:19:21 51°24.404 3°5.116 51.7 13.3 50 17.2
2011-10-03 06:19:26 51°24.415 3°5.139 52.1 13.3 51 16.7
2011-10-03 06:19:31 51°24.427 3°5.162 52.6 13.3 51 16.7
2011-10-03 06:19:36 51°24.439 3°5.185 53 13.4 51 16.2
2011-10-03 06:19:41 51°24.45 3°5.208 53 13.4 51 15.7
2011-10-03 06:19:46 51°24.462 3°5.232 54.1 13.4 53 15.5
2011-10-03 06:19:51 51°24.473 3°5.256 54.9 13.4 53 15.3
2011-10-03 06:19:56 51°24.483 3°5.28 56.2 13.4 55 15
2011-10-03 06:20:01 51°24.494 3°5.305 57.4 13.4 55 14.8
2011-10-03 06:20:06 51°24.504 3°5.33 58.3 13.4 56 14.6
2011-10-03 06:20:11 51°24.515 3°5.354 58.4 13.4 56 14.6
2011-10-03 06:20:16 51°24.525 3°5.379 58.9 13.4 57 14.6
2011-10-03 06:20:21 51°24.535 3°5.403 59.3 13.4 56 14.4
2011-10-03 06:20:25 51°24.544 3°5.423 59.5 13.4 57 14.3
2011-10-03 06:20:31 51°24.556 3°5.453 59.9 13.4 57 14.3
2011-10-03 06:20:36 51°24.566 3°5.478 59.8 13.4 57 14.3
2011-10-03 06:20:41 51°24.576 3°5.502 59.4 13.4 56 14.4
2011-10-03 06:20:46 51°24.587 3°5.527 58.9 13.4 56 14.4
2011-10-03 06:20:51 51°24.598 3°5.551 58.4 13.5 55 14.3
2011-10-03 06:20:56 51°24.608 3°5.576 57.9 13.5 55 14.3
2011-10-03 06:21:01 51°24.619 3°5.601 57.8 13.4 55 14.3
2011-10-03 06:21:06 51°24.629 3°5.625 57.8 13.5 56 14.3
2011-10-03 06:21:11 51°24.64 3°5.65 58.3 13.5 55 14.2
2011-10-03 06:21:16 51°24.651 3°5.674 58.2 13.5 56 14.4
2011-10-03 06:21:21 51°24.661 3°5.699 58.2 13.5 55 14.4
2011-10-03 06:21:26 51°24.672 3°5.724 58.2 13.5 56 14.3
2011-10-03 06:21:31 51°24.682 3°5.748 58.4 13.5 56 14.3
2011-10-03 06:21:36 51°24.693 3°5.773 58.5 13.5 56 14.3
2011-10-03 06:21:41 51°24.704 3°5.798 58.2 13.5 55 14.2
2011-10-03 06:21:46 51°24.714 3°5.822 57.7 13.5 55 14.2
2011-10-03 06:21:51 51°24.725 3°5.847 57.6 13.5 54 14.1
2011-10-03 06:21:56 51°24.736 3°5.871 57.2 13.5 54 14.1
2011-10-03 06:22:01 51°24.747 3°5.895 56.7 13.5 53 13.9
2011-10-03 06:22:05 51°24.757 3°5.914 55.8 13.5 53 14
2011-10-03 06:22:11 51°24.771 3°5.942 54.6 13.5 51 14
2011-10-03 06:22:16 51°24.783 3°5.965 53.7 13.5 51 14
2011-10-03 06:22:21 51°24.795 3°5.988 52.5 13.5 50 13.9
2011-10-03 06:22:25 51°24.804 3°6.006 52 13.4 50 13.7
2011-10-03 06:22:31 51°24.819 3°6.034 52.2 13.5 49 13.8
2011-10-03 06:22:36 51°24.831 3°6.056 51.4 13.5 49 13.7
2011-10-03 06:22:41 51°24.843 3°6.08 51.6 13.4 51 13.5
2011-10-03 06:22:45 51°24.853 3°6.098 52 13.5 50 13.5
2011-10-03 06:22:51 51°24.867 3°6.126 52 13.5 51 13.4
2011-10-03 06:22:56 51°24.878 3°6.149 52.6 13.5 52 13.3
2011-10-03 06:23:01 51°24.89 3°6.173 54.2 13.5 53 13.3
2011-10-03 06:23:06 51°24.901 3°6.197 55 13.6 53 13.3
2011-10-03 06:23:11 51°24.912 3°6.222 55.8 13.6 55 13.3
2011-10-03 06:23:16 51°24.922 3°6.247 57.3 13.5 57 13.2
2011-10-03 06:23:21 51°24.933 3°6.272 58.7 13.6 56 13.1
2011-10-03 06:23:26 51°24.943 3°6.297 58.2 13.7 56 13
2011-10-03 06:23:31 51°24.954 3°6.322 58.2 13.6 56 12.9
2011-10-03 06:23:36 51°24.964 3°6.348 58.8 13.6 57 12.9
2011-10-03 06:23:41 51°24.974 3°6.373 59.5 13.7 57 12.7
2011-10-03 06:23:46 51°24.985 3°6.398 59.1 13.7 56 12.7
2011-10-03 06:23:51 51°24.995 3°6.423 59 13.6 56 12.5
2011-10-03 06:23:56 51°25.006 3°6.448 58.9 13.6 56 12.5
2011-10-03 06:24:01 51°25.016 3°6.474 58.6 13.6 57 12.5
2011-10-03 06:24:05 51°25.025 3°6.494 58.9 13.7 56 12.4
2011-10-03 06:24:11 51°25.037 3°6.524 58.9 13.7 57 12.3
2011-10-03 06:24:16 51°25.048 3°6.549 58.9 13.6 56 12.3
2011-10-03 06:24:21 51°25.058 3°6.574 58.9 13.6 57 12.3
2011-10-03 06:24:25 51°25.067 3°6.594 58.9 13.6 56 12.2
2011-10-03 06:24:31 51°25.08 3°6.624 59.1 13.6 56 12.1
2011-10-03 06:24:36 51°25.09 3°6.649 58.2 13.6 55 12
2011-10-03 06:24:41 51°25.101 3°6.674 57.9 13.6 55 12
2011-10-03 06:24:46 51°25.112 3°6.698 57.6 13.6 54 11.8
2011-10-03 06:24:51 51°25.123 3°6.722 57.2 13.6 54 11.8
2011-10-03 06:24:56 51°25.134 3°6.747 56.9 13.6 54 11.9
2011-10-03 06:25:01 51°25.146 3°6.771 56.4 13.6 53 11.8
2011-10-03 06:25:06 51°25.158 3°6.794 55.5 13.6 51 11.8
2011-10-03 06:25:11 51°25.17 3°6.817 53.3 13.6 50 11.8
2011-10-03 06:25:16 51°25.182 3°6.84 52.8 13.6 50 11.7
2011-10-03 06:25:21 51°25.194 3°6.863 51.4 13.6 48 11.8
2011-10-03 06:25:26 51°25.207 3°6.886 51.4 13.6 50 11.6
2011-10-03 06:25:31 51°25.219 3°6.909 51.3 13.6 49 11.7
2011-10-03 06:25:36 51°25.231 3°6.932 51.5 13.6 50 11.5
2011-10-03 06:25:41 51°25.243 3°6.955 52.5 13.6 50 11.5
2011-10-03 06:25:46 51°25.255 3°6.978 52.8 13.6 51 11.5
2011-10-03 06:25:51 51°25.266 3°7.002 53.7 13.6 52 11.5
2011-10-03 06:25:56 51°25.278 3°7.027 55.2 13.6 54 11.4
2011-10-03 06:26:01 51°25.289 3°7.051 56.7 13.6 54 11.5
2011-10-03 06:26:06 51°25.299 3°7.076 57.9 13.6 56 11.4
2011-10-03 06:26:11 51°25.309 3°7.101 59 13.6 57 11.4
2011-10-03 06:26:16 51°25.32 3°7.127 59.9 13.6 58 11.2
2011-10-03 06:26:21 51°25.329 3°7.153 61.3 13.6 59 11.2
2011-10-03 06:26:25 51°25.337 3°7.173 61.9 13.6 58 11.3
2011-10-03 06:26:31 51°25.349 3°7.205 62.2 13.5 60 11.2